createdAt,value
2019-01-06T00:02:32.329Z,5.15
2019-01-06T00:05:22.207Z,4.10
2019-01-06T00:08:10.196Z,6.00
2019-01-06T00:10:59.332Z,2.52
2019-01-06T00:13:57.646Z,4.15
2019-01-06T00:16:47.007Z,5.97
2019-01-06T00:19:47.082Z,3.10
2019-01-06T00:22:42.473Z,4.20
2019-01-06T00:25:30.890Z,2.40
2019-01-06T00:28:26.472Z,3.10
2019-01-06T00:31:18.692Z,4.58
2019-01-06T00:34:26.519Z,2.80
2019-01-06T00:37:24.662Z,2.52
2019-01-06T00:40:14.424Z,3.12
2019-01-06T00:43:21.831Z,3.17
2019-01-06T00:46:02.923Z,5.95
2019-01-06T00:49:10.240Z,3.17
2019-01-06T00:51:58.050Z,2.05
2019-01-06T00:54:46.052Z,3.05
2019-01-06T00:57:34.154Z,3.75
2019-01-06T01:00:22.766Z,2.62
2019-01-06T01:03:10.457Z,4.72
2019-01-06T01:06:11.560Z,3.30
2019-01-06T01:08:59.572Z,3.98
2019-01-06T01:11:54.816Z,4.20
2019-01-06T01:14:42.170Z,2.40
2019-01-06T01:17:37.220Z,3.30
2019-01-06T01:20:26.520Z,2.50
2019-01-06T01:23:14.327Z,3.85
2019-01-06T01:26:06.408Z,3.60
2019-01-06T01:28:58.760Z,3.65
2019-01-06T01:31:57.282Z,5.62
2019-01-06T01:34:52.183Z,3.75
2019-01-06T01:37:48.653Z,3.22
2019-01-06T01:40:47.034Z,7.28
2019-01-06T01:43:40.449Z,3.87
2019-01-06T01:46:23.171Z,3.92
2019-01-06T01:49:20.714Z,6.87
2019-01-06T01:52:06.530Z,2.75
2019-01-06T01:54:52.178Z,5.08
2019-01-06T01:57:40.220Z,5.03
2019-01-06T02:00:44.132Z,4.55
2019-01-06T02:03:33.446Z,12.35
2019-01-06T02:06:21.212Z,4.75
2019-01-06T02:09:01.922Z,3.33
2019-01-06T02:11:51.560Z,3.98
2019-01-06T02:14:43.960Z,3.98
2019-01-06T02:17:40.080Z,5.10
2019-01-06T02:20:47.734Z,3.45
2019-01-06T02:23:37.020Z,3.10
2019-01-06T02:26:26.050Z,7.53
2019-01-06T02:29:09.996Z,4.62
2019-01-06T02:31:57.900Z,4.80
2019-01-06T02:34:47.160Z,8.30
2019-01-06T02:37:26.576Z,6.35
2019-01-06T02:40:18.738Z,6.90
2019-01-06T02:43:26.184Z,4.75
2019-01-06T02:46:31.915Z,3.65
2019-01-06T02:49:39.349Z,4.30
2019-01-06T02:52:27.334Z,3.80
2019-01-06T02:55:15.570Z,3.05
2019-01-06T02:58:03.456Z,3.90
2019-01-06T03:00:58.706Z,4.12
2019-01-06T03:03:38.220Z,7.10
2019-01-06T03:06:42.883Z,4.30
2019-01-06T03:09:24.946Z,4.08
2019-01-06T03:12:13.049Z,4.10
2019-01-06T03:15:13.312Z,2.87
2019-01-06T03:18:00.976Z,4.95
2019-01-06T03:21:03.233Z,2.92
2019-01-06T03:23:57.842Z,3.40
2019-01-06T03:26:41.124Z,3.62
2019-01-06T03:29:31.913Z,4.72
2019-01-06T03:32:20.173Z,8.65
2019-01-06T03:35:08.386Z,2.35
2019-01-06T03:37:56.448Z,3.55
2019-01-06T03:40:41.065Z,3.85
2019-01-06T03:43:27.737Z,3.45
2019-01-06T03:46:15.750Z,2.60
2019-01-06T03:49:03.848Z,3.77
2019-01-06T03:51:47.880Z,6.00
2019-01-06T03:54:46.622Z,4.05
2019-01-06T03:57:34.757Z,3.90
2019-01-06T04:00:42.902Z,3.42
2019-01-06T04:03:32.236Z,3.42
2019-01-06T04:06:20.536Z,2.50
2019-01-06T04:09:21.642Z,3.15
2019-01-06T04:12:09.467Z,3.83
2019-01-06T04:15:01.645Z,3.58
2019-01-06T04:17:59.846Z,2.70
2019-01-06T04:21:07.324Z,3.37
2019-01-06T04:24:15.697Z,2.70
2019-01-06T04:27:00.420Z,2.58
2019-01-06T04:29:48.388Z,2.35
2019-01-06T04:32:40.547Z,2.37
2019-01-06T04:35:45.180Z,13.65
2019-01-06T04:38:33.060Z,2.50
2019-01-06T04:41:22.348Z,2.22
2019-01-06T04:44:10.392Z,2.45
2019-01-06T04:46:57.141Z,4.50
2019-01-06T04:49:45.070Z,2.30
2019-01-06T04:52:33.137Z,2.77
2019-01-06T04:55:38.249Z,5.33
2019-01-06T04:58:26.324Z,3.92
2019-01-06T05:01:24.502Z,4.10
2019-01-06T05:04:13.821Z,3.22
2019-01-06T05:07:01.722Z,2.22
2019-01-06T05:09:49.873Z,3.00
2019-01-06T05:12:39.192Z,2.25
2019-01-06T05:15:37.112Z,3.15
2019-01-06T05:18:25.346Z,3.02
2019-01-06T05:21:14.624Z,6.22
2019-01-06T05:24:12.036Z,2.92
2019-01-06T05:27:10.776Z,2.33
2019-01-06T05:30:00.216Z,2.85
2019-01-06T05:32:58.370Z,4.42
2019-01-06T05:35:46.360Z,2.60
2019-01-06T05:38:34.367Z,2.80
2019-01-06T05:41:22.512Z,3.15
2019-01-06T05:44:10.817Z,3.25
2019-01-06T05:47:06.149Z,3.17
2019-01-06T05:49:55.440Z,2.95
2019-01-06T05:52:44.699Z,2.67
2019-01-06T05:55:36.036Z,3.02
2019-01-06T05:58:42.011Z,2.80
2019-01-06T06:01:31.296Z,2.00
2019-01-06T06:04:29.506Z,2.42
2019-01-06T06:07:17.259Z,3.45
2019-01-06T06:10:24.755Z,2.85
2019-01-06T06:13:12.646Z,2.42
2019-01-06T06:16:17.226Z,2.90
2019-01-06T06:19:11.021Z,4.55
2019-01-06T06:21:59.120Z,1.80
2019-01-06T06:24:44.150Z,2.20
2019-01-06T06:27:24.347Z,2.60
2019-01-06T06:30:12.520Z,2.08
2019-01-06T06:33:00.470Z,1.82
2019-01-06T06:35:48.736Z,2.62
2019-01-06T06:38:37.409Z,2.50
2019-01-06T06:41:41.828Z,4.65
2019-01-06T06:44:34.064Z,2.30
2019-01-06T06:47:19.922Z,2.30
2019-01-06T06:50:08.088Z,3.40
2019-01-06T06:52:55.932Z,2.87
2019-01-06T06:55:43.903Z,1.77
2019-01-06T06:58:31.768Z,2.55
2019-01-06T07:01:51.334Z,2.27
2019-01-06T07:04:47.120Z,2.10
2019-01-06T07:07:35.436Z,2.20
2019-01-06T07:10:24.867Z,1.95
2019-01-06T07:13:14.113Z,3.27
2019-01-06T07:16:02.159Z,1.80
2019-01-06T07:18:49.943Z,2.15
2019-01-06T07:21:43.394Z,3.42
2019-01-06T07:24:31.428Z,2.30
2019-01-06T07:27:20.692Z,3.02
2019-01-06T07:30:09.986Z,2.10
2019-01-06T07:33:14.702Z,2.20
2019-01-06T07:35:55.156Z,2.50
2019-01-06T07:38:44.514Z,2.25
2019-01-06T07:41:33.780Z,2.72
2019-01-06T07:44:21.981Z,3.30
2019-01-06T07:47:11.265Z,1.95
2019-01-06T07:49:59.536Z,1.80
2019-01-06T07:52:48.807Z,3.08
2019-01-06T07:55:41.120Z,2.50
2019-01-06T07:58:26.072Z,4.00
2019-01-06T08:01:30.699Z,2.12
2019-01-06T08:04:38.301Z,2.98
2019-01-06T08:07:42.781Z,4.40
2019-01-06T08:10:30.448Z,3.12
2019-01-06T08:13:19.721Z,2.47
2019-01-06T08:16:07.573Z,2.37
2019-01-06T08:19:02.565Z,3.40
2019-01-06T08:21:50.345Z,1.98
2019-01-06T08:24:38.725Z,6.78
2019-01-06T08:27:26.644Z,2.80
2019-01-06T08:30:21.534Z,2.75
2019-01-06T08:33:09.693Z,3.27
2019-01-06T08:36:10.832Z,3.80
2019-01-06T08:38:57.599Z,5.40
2019-01-06T08:41:41.228Z,2.27
2019-01-06T08:44:30.486Z,2.90
2019-01-06T08:47:22.641Z,3.42
2019-01-06T08:50:14.765Z,2.83
2019-01-06T08:53:03.051Z,3.50
2019-01-06T08:55:52.313Z,2.67
2019-01-06T08:58:40.549Z,4.33
2019-01-06T09:01:36.149Z,2.65
2019-01-06T09:04:25.541Z,3.22
2019-01-06T09:07:14.808Z,6.22
2019-01-06T09:10:00.413Z,3.77
2019-01-06T09:12:55.948Z,5.50
2019-01-06T09:15:44.135Z,10.58
2019-01-06T09:18:30.468Z,3.90
2019-01-06T09:21:35.129Z,3.30
2019-01-06T09:24:23.838Z,3.70
2019-01-06T09:27:18.745Z,9.15
2019-01-06T09:30:08.037Z,6.15
2019-01-06T09:33:08.952Z,2.75
2019-01-06T09:36:04.051Z,5.47
2019-01-06T09:38:49.129Z,4.05
2019-01-06T09:41:36.613Z,5.10
2019-01-06T09:44:24.528Z,3.85
2019-01-06T09:47:04.922Z,2.87
2019-01-06T09:50:02.965Z,4.87
2019-01-06T09:53:07.457Z,2.95
2019-01-06T09:55:55.101Z,3.92
2019-01-06T09:58:43.036Z,3.20
2019-01-06T10:01:52.764Z,23.47
2019-01-06T10:04:40.496Z,3.62
2019-01-06T10:07:38.828Z,3.25
2019-01-06T10:10:22.431Z,5.75
2019-01-06T10:13:29.872Z,3.27
2019-01-06T10:16:18.844Z,4.20
2019-01-06T10:19:10.990Z,3.27
2019-01-06T10:22:00.225Z,3.80
2019-01-06T10:24:52.135Z,3.58
2019-01-06T10:27:46.201Z,2.72
2019-01-06T10:30:53.461Z,7.90
2019-01-06T10:33:43.749Z,5.67
2019-01-06T10:36:29.681Z,3.20
2019-01-06T10:39:21.514Z,7.62
2019-01-06T10:42:16.555Z,3.55
2019-01-06T10:45:03.376Z,2.60
2019-01-06T10:47:50.370Z,2.77
2019-01-06T10:50:52.770Z,3.05
2019-01-06T10:53:57.412Z,3.40
2019-01-06T10:56:52.444Z,7.25
2019-01-06T10:59:45.301Z,3.95
2019-01-06T11:02:34.569Z,3.50
2019-01-06T11:05:33.662Z,3.45
2019-01-06T11:08:22.337Z,3.92
2019-01-06T11:11:11.660Z,4.70
2019-01-06T11:13:59.523Z,11.20
2019-01-06T11:17:07.060Z,3.47
2019-01-06T11:19:55.037Z,3.12
2019-01-06T11:22:47.683Z,3.65
2019-01-06T11:25:41.561Z,5.95
2019-01-06T11:28:30.913Z,4.78
2019-01-06T11:31:18.873Z,4.53
2019-01-06T11:34:06.620Z,3.40
2019-01-06T11:37:12.047Z,8.63
2019-01-06T11:40:01.652Z,2.70
2019-01-06T11:43:02.976Z,2.98
2019-01-06T11:45:52.252Z,5.80
2019-01-06T11:48:40.330Z,4.62
2019-01-06T11:51:32.431Z,5.00
2019-01-06T11:54:24.504Z,3.17
2019-01-06T11:57:12.692Z,8.35
2019-01-06T12:00:20.104Z,3.15
2019-01-06T12:03:06.934Z,3.40
2019-01-06T12:05:59.028Z,2.83
2019-01-06T12:08:51.077Z,5.85
2019-01-06T12:11:39.993Z,2.45
2019-01-06T12:14:35.143Z,3.80
2019-01-06T12:17:20.023Z,3.75
2019-01-06T12:20:24.651Z,5.62
2019-01-06T12:23:16.991Z,7.25
2019-01-06T12:26:16.716Z,2.95
2019-01-06T12:29:05.991Z,4.25
2019-01-06T12:31:53.820Z,8.60
2019-01-06T12:34:48.845Z,4.17
2019-01-06T12:37:36.623Z,2.55
2019-01-06T12:40:29.403Z,4.72
2019-01-06T12:43:19.273Z,6.47
2019-01-06T12:46:23.511Z,3.40
2019-01-06T12:49:11.204Z,5.72
2019-01-06T12:52:00.608Z,4.90
2019-01-06T12:54:49.610Z,5.40
2019-01-06T12:57:44.708Z,5.00
2019-01-06T13:00:32.868Z,2.55
2019-01-06T13:03:25.139Z,5.28
2019-01-06T13:06:20.576Z,6.72
2019-01-06T13:09:12.611Z,9.88
2019-01-06T13:12:14.268Z,5.50
2019-01-06T13:15:03.613Z,4.83
2019-01-06T13:18:11.221Z,3.77
2019-01-06T13:21:06.481Z,3.65
2019-01-06T13:23:44.701Z,4.00
2019-01-06T13:26:36.556Z,9.58
2019-01-06T13:29:45.069Z,3.27
2019-01-06T13:32:39.997Z,2.70
2019-01-06T13:35:32.120Z,3.70
2019-01-06T13:38:39.677Z,10.03
2019-01-06T13:41:34.294Z,9.88
2019-01-06T13:44:23.169Z,5.30
2019-01-06T13:47:10.955Z,7.50
2019-01-06T13:50:05.871Z,9.73
2019-01-06T13:52:59.461Z,3.83
2019-01-06T13:56:00.891Z,5.12
2019-01-06T13:59:02.132Z,5.22
2019-01-06T14:01:40.344Z,6.03
2019-01-06T14:04:29.615Z,4.22
2019-01-06T14:07:20.680Z,5.22
2019-01-06T14:10:17.261Z,5.28
2019-01-06T14:13:09.972Z,7.45
2019-01-06T14:16:00.409Z,4.50
2019-01-06T14:18:52.256Z,3.47
2019-01-06T14:21:50.690Z,3.98
2019-01-06T14:24:38.555Z,7.33
2019-01-06T14:27:26.680Z,3.80
2019-01-06T14:30:34.538Z,8.08
2019-01-06T14:33:21.242Z,16.35
2019-01-06T14:36:09.411Z,8.55
2019-01-06T14:39:11.030Z,3.17
2019-01-06T14:42:03.572Z,3.55
2019-01-06T14:44:51.553Z,3.87
2019-01-06T14:47:39.276Z,5.42
2019-01-06T14:50:38.568Z,6.00
2019-01-06T14:53:29.638Z,4.35
2019-01-06T14:56:17.463Z,4.92
2019-01-06T14:59:05.449Z,5.50
2019-01-06T15:02:09.785Z,5.50
2019-01-06T15:04:57.591Z,3.20
2019-01-06T15:07:45.838Z,6.92
2019-01-06T15:10:33.849Z,5.87
2019-01-06T15:13:25.811Z,8.10
2019-01-06T15:16:33.460Z,4.97
2019-01-06T15:19:31.773Z,6.95
2019-01-06T15:22:39.428Z,9.78
2019-01-06T15:25:28.693Z,8.75
2019-01-06T15:28:29.815Z,7.22
2019-01-06T15:31:17.613Z,5.40
2019-01-06T15:34:12.504Z,5.33
2019-01-06T15:37:13.549Z,5.65
2019-01-06T15:40:01.702Z,11.68
2019-01-06T15:42:49.441Z,6.12
2019-01-06T15:45:37.369Z,9.60
2019-01-06T15:48:30.499Z,8.05
2019-01-06T15:51:18.292Z,9.00
2019-01-06T15:54:12.376Z,15.63
2019-01-06T15:57:00.330Z,10.00
2019-01-06T15:59:56.004Z,7.08
2019-01-06T16:02:39.133Z,6.35
2019-01-06T16:05:40.583Z,8.50
2019-01-06T16:08:32.688Z,6.87
2019-01-06T16:11:22.271Z,10.48
2019-01-06T16:14:10.243Z,8.03
2019-01-06T16:17:01.174Z,11.30
2019-01-06T16:19:59.458Z,8.63
2019-01-06T16:22:56.555Z,14.25
2019-01-06T16:25:45.878Z,13.08
2019-01-06T16:28:35.159Z,14.35
2019-01-06T16:31:27.234Z,9.80
2019-01-06T16:34:15.144Z,6.62
2019-01-06T16:36:58.971Z,8.40
2019-01-06T16:39:46.830Z,8.65
2019-01-06T16:42:33.111Z,12.85
2019-01-06T16:45:28.683Z,8.18
2019-01-06T16:48:24.197Z,9.08
2019-01-06T16:51:12.365Z,11.68
2019-01-06T16:53:57.831Z,12.00
2019-01-06T16:56:47.111Z,14.53
2019-01-06T16:59:45.333Z,9.40
2019-01-06T17:02:46.777Z,9.33
2019-01-06T17:05:34.656Z,10.58
2019-01-06T17:08:22.563Z,12.18
2019-01-06T17:11:11.001Z,10.32
2019-01-06T17:14:03.013Z,9.30
2019-01-06T17:17:07.801Z,10.53
2019-01-06T17:19:58.123Z,7.20
2019-01-06T17:23:02.300Z,18.20
2019-01-06T17:25:57.568Z,7.53
2019-01-06T17:28:45.744Z,6.87
2019-01-06T17:31:53.122Z,10.08
2019-01-06T17:34:51.420Z,10.95
2019-01-06T17:37:39.350Z,10.48
2019-01-06T17:40:33.333Z,10.38
2019-01-06T17:43:20.947Z,9.28
2019-01-06T17:46:06.429Z,14.30
2019-01-06T17:48:51.704Z,8.88
2019-01-06T17:51:49.753Z,8.33
2019-01-06T17:54:57.067Z,11.38
2019-01-06T17:57:55.341Z,8.55
2019-01-06T18:00:50.457Z,10.93
2019-01-06T18:03:45.421Z,17.10
2019-01-06T18:06:33.659Z,10.68
2019-01-06T18:09:34.152Z,16.73
2019-01-06T18:12:24.434Z,11.78
2019-01-06T18:15:12.629Z,15.18
2019-01-06T18:18:00.771Z,15.53
2019-01-06T18:20:52.049Z,11.12
2019-01-06T18:23:39.713Z,27.90
2019-01-06T18:26:27.683Z,12.07
2019-01-06T18:29:13.747Z,15.15
2019-01-06T18:32:01.677Z,11.45
2019-01-06T18:35:09.194Z,10.80
2019-01-06T18:38:10.159Z,17.60
2019-01-06T18:40:53.682Z,11.20
2019-01-06T18:43:41.789Z,9.33
2019-01-06T18:46:40.061Z,11.55
2019-01-06T18:49:38.639Z,11.55
2019-01-06T18:52:26.785Z,23.57
2019-01-06T18:55:28.210Z,13.32
2019-01-06T18:58:20.353Z,20.68
2019-01-06T19:01:09.786Z,23.10
2019-01-06T19:04:10.941Z,12.88
2019-01-06T19:06:58.882Z,15.78
2019-01-06T19:09:43.002Z,14.30
2019-01-06T19:12:44.697Z,31.62
2019-01-06T19:15:29.678Z,17.20
2019-01-06T19:18:21.796Z,21.85
2019-01-06T19:21:10.583Z,12.68
2019-01-06T19:23:59.007Z,16.57
2019-01-06T19:27:06.760Z,18.17
2019-01-06T19:30:14.455Z,19.27
2019-01-06T19:33:15.894Z,26.75
2019-01-06T19:36:11.031Z,18.02
2019-01-06T19:38:59.198Z,19.20
2019-01-06T19:41:54.497Z,21.45
2019-01-06T19:44:44.630Z,33.83
2019-01-06T19:47:32.516Z,32.60
2019-01-06T19:50:20.021Z,25.20
2019-01-06T19:53:08.232Z,19.40
2019-01-06T19:56:12.870Z,32.10
2019-01-06T19:59:04.949Z,22.55
2019-01-06T20:01:56.213Z,23.25
2019-01-06T20:04:48.488Z,22.95
2019-01-06T20:07:40.863Z,20.43
2019-01-06T20:10:28.796Z,24.55
2019-01-06T20:13:25.193Z,28.45
2019-01-06T20:16:13.381Z,24.37
2019-01-06T20:19:01.565Z,29.48
2019-01-06T20:21:53.859Z,22.98
2019-01-06T20:24:47.076Z,25.35
2019-01-06T20:27:39.307Z,17.15
2019-01-06T20:30:31.377Z,17.20
2019-01-06T20:33:14.333Z,18.85
2019-01-06T20:36:02.489Z,19.37
2019-01-06T20:38:54.827Z,16.07
2019-01-06T20:41:46.829Z,25.43
2019-01-06T20:44:45.540Z,13.78
2019-01-06T20:47:53.453Z,16.62
2019-01-06T20:50:41.272Z,19.15
2019-01-06T20:53:29.125Z,17.80
2019-01-06T20:56:27.437Z,14.85
2019-01-06T20:59:32.911Z,18.60
2019-01-06T21:02:22.257Z,18.00
2019-01-06T21:05:17.217Z,17.67
2019-01-06T21:08:12.992Z,13.13
2019-01-06T21:11:01.128Z,13.30
2019-01-06T21:13:50.462Z,15.25
2019-01-06T21:16:39.321Z,17.48
2019-01-06T21:19:28.645Z,10.98
2019-01-06T21:22:24.319Z,13.75
2019-01-06T21:25:13.581Z,12.95
2019-01-06T21:28:02.907Z,19.35
2019-01-06T21:31:03.942Z,13.93
2019-01-06T21:33:53.047Z,17.25
2019-01-06T21:36:48.351Z,13.85
2019-01-06T21:39:32.446Z,17.90
2019-01-06T21:42:20.629Z,16.97
2019-01-06T21:45:08.546Z,22.05
2019-01-06T21:47:40.929Z,29.90
2019-01-06T21:50:30.227Z,24.55
2019-01-06T21:53:28.610Z,13.13
2019-01-06T21:56:16.735Z,20.57
2019-01-06T21:59:04.865Z,18.00
2019-01-06T22:02:09.541Z,20.52
2019-01-06T22:05:01.609Z,17.27
2019-01-06T22:07:53.745Z,19.85
2019-01-06T22:10:38.048Z,17.30
2019-01-06T22:13:25.524Z,24.67
2019-01-06T22:16:20.652Z,15.68
2019-01-06T22:19:25.100Z,16.57
2019-01-06T22:22:18.753Z,23.00
2019-01-06T22:25:24.513Z,16.02
2019-01-06T22:28:12.470Z,15.80
2019-01-06T22:31:00.305Z,19.45
2019-01-06T22:33:48.449Z,17.50
2019-01-06T22:36:36.353Z,16.35
2019-01-06T22:39:32.201Z,13.78
2019-01-06T22:42:21.573Z,17.60
2019-01-06T22:45:29.076Z,16.95
2019-01-06T22:48:24.249Z,21.02
2019-01-06T22:51:12.169Z,16.67
2019-01-06T22:54:00.261Z,19.52
2019-01-06T22:56:49.809Z,23.40
2019-01-06T22:59:51.088Z,17.70
2019-01-06T23:02:45.445Z,15.38
2019-01-06T23:05:33.457Z,13.40
2019-01-06T23:08:25.514Z,22.50
2019-01-06T23:11:18.243Z,24.30
2019-01-06T23:14:22.428Z,18.73
2019-01-06T23:17:14.529Z,17.95
2019-01-06T23:20:02.705Z,14.35
2019-01-06T23:22:51.313Z,21.07
2019-01-06T23:25:39.561Z,32.15
2019-01-06T23:28:32.081Z,17.77
2019-01-06T23:31:21.414Z,20.32
2019-01-06T23:34:18.287Z,15.70
2019-01-06T23:37:10.765Z,35.83
2019-01-06T23:40:02.849Z,19.02
2019-01-06T23:42:52.887Z,24.37
2019-01-06T23:45:38.649Z,21.68
2019-01-06T23:48:29.263Z,19.40
2019-01-06T23:51:27.644Z,26.77
2019-01-06T23:54:15.087Z,19.77
2019-01-06T23:57:15.792Z,18.05
